sensor_id;sensor_type;location;lat;lon;timestamp;temperature;humidity
35425;DHT22;21537;48.226;16.400;2022-07-30T00:02:22;20.70;99.90
35425;DHT22;21537;48.226;16.400;2022-07-30T00:04:48;20.70;99.90
35425;DHT22;21537;48.226;16.400;2022-07-30T00:07:14;20.70;99.90
35425;DHT22;21537;48.226;16.400;2022-07-30T00:09:40;20.70;99.90
35425;DHT22;21537;48.226;16.400;2022-07-30T00:12:06;20.70;99.90
35425;DHT22;21537;48.226;16.400;2022-07-30T00:14:33;20.60;99.90
35425;DHT22;21537;48.226;16.400;2022-07-30T00:17:03;20.60;99.90
35425;DHT22;21537;48.226;16.400;2022-07-30T00:19:29;20.60;99.90
35425;DHT22;21537;48.226;16.400;2022-07-30T00:21:55;20.60;99.90
35425;DHT22;21537;48.226;16.400;2022-07-30T00:24:21;20.70;99.90
35425;DHT22;21537;48.226;16.400;2022-07-30T00:26:47;20.70;99.90
35425;DHT22;21537;48.226;16.400;2022-07-30T00:29:13;20.60;99.90
35425;DHT22;21537;48.226;16.400;2022-07-30T00:31:39;20.60;99.90
35425;DHT22;21537;48.226;16.400;2022-07-30T00:34:05;20.60;99.90
35425;DHT22;21537;48.226;16.400;2022-07-30T00:36:31;20.60;99.90
35425;DHT22;21537;48.226;16.400;2022-07-30T00:38:57;20.60;99.90
35425;DHT22;21537;48.226;16.400;2022-07-30T00:41:23;20.50;99.90
35425;DHT22;21537;48.226;16.400;2022-07-30T00:43:50;20.60;99.90
35425;DHT22;21537;48.226;16.400;2022-07-30T00:46:15;20.50;99.90
35425;DHT22;21537;48.226;16.400;2022-07-30T00:48:42;20.50;99.90
35425;DHT22;21537;48.226;16.400;2022-07-30T00:51:08;20.50;99.90
35425;DHT22;21537;48.226;16.400;2022-07-30T00:53:34;20.50;99.90
35425;DHT22;21537;48.226;16.400;2022-07-30T00:56:01;20.40;99.90
35425;DHT22;21537;48.226;16.400;2022-07-30T00:58:27;20.40;99.90
35425;DHT22;21537;48.226;16.400;2022-07-30T01:00:53;20.40;99.90
35425;DHT22;21537;48.226;16.400;2022-07-30T01:03:19;20.40;99.90
35425;DHT22;21537;48.226;16.400;2022-07-30T01:05:45;20.30;99.90
35425;DHT22;21537;48.226;16.400;2022-07-30T01:08:11;20.30;99.90
35425;DHT22;21537;48.226;16.400;2022-07-30T01:10:37;20.30;99.90
35425;DHT22;21537;48.226;16.400;2022-07-30T01:13:04;20.20;99.90
35425;DHT22;21537;48.226;16.400;2022-07-30T01:15:31;20.20;99.90
35425;DHT22;21537;48.226;16.400;2022-07-30T01:17:59;20.30;99.90
35425;DHT22;21537;48.226;16.400;2022-07-30T01:20:31;20.30;99.90
35425;DHT22;21537;48.226;16.400;2022-07-30T01:23:17;20.30;99.90
35425;DHT22;21537;48.226;16.400;2022-07-30T01:25:57;20.40;99.90
35425;DHT22;21537;48.226;16.400;2022-07-30T01:28:51;20.30;99.90
35425;DHT22;21537;48.226;16.400;2022-07-30T01:31:20;20.40;99.90
35425;DHT22;21537;48.226;16.400;2022-07-30T01:33:49;20.40;99.90
35425;DHT22;21537;48.226;16.400;2022-07-30T01:36:17;20.40;99.90
35425;DHT22;21537;48.226;16.400;2022-07-30T01:38:47;20.40;99.90
35425;DHT22;21537;48.226;16.400;2022-07-30T01:41:14;20.40;99.90
35425;DHT22;21537;48.226;16.400;2022-07-30T01:43:44;20.40;99.90
35425;DHT22;21537;48.226;16.400;2022-07-30T01:46:14;20.40;99.90
35425;DHT22;21537;48.226;16.400;2022-07-30T01:48:43;20.40;99.90
35425;DHT22;21537;48.226;16.400;2022-07-30T01:51:11;20.40;99.90
35425;DHT22;21537;48.226;16.400;2022-07-30T01:53:42;20.40;99.90
35425;DHT22;21537;48.226;16.400;2022-07-30T01:56:10;20.40;99.90
35425;DHT22;21537;48.226;16.400;2022-07-30T01:58:39;20.30;99.90
35425;DHT22;21537;48.226;16.400;2022-07-30T02:01:20;20.30;99.90
35425;DHT22;21537;48.226;16.400;2022-07-30T02:03:46;20.40;99.90
35425;DHT22;21537;48.226;16.400;2022-07-30T02:06:18;20.40;99.90
35425;DHT22;21537;48.226;16.400;2022-07-30T02:08:58;20.30;99.90
35425;DHT22;21537;48.226;16.400;2022-07-30T02:11:29;20.30;99.90
35425;DHT22;21537;48.226;16.400;2022-07-30T02:14:27;20.30;99.90
35425;DHT22;21537;48.226;16.400;2022-07-30T02:16:56;20.20;99.90
35425;DHT22;21537;48.226;16.400;2022-07-30T02:19:35;20.20;99.90
35425;DHT22;21537;48.226;16.400;2022-07-30T02:22:09;20.10;99.90
35425;DHT22;21537;48.226;16.400;2022-07-30T02:24:36;20.10;99.90
35425;DHT22;21537;48.226;16.400;2022-07-30T02:27:09;20.10;99.90
35425;DHT22;21537;48.226;16.400;2022-07-30T02:29:37;20.00;99.90
35425;DHT22;21537;48.226;16.400;2022-07-30T02:32:08;20.00;99.90
35425;DHT22;21537;48.226;16.400;2022-07-30T02:34:37;20.00;99.90
35425;DHT22;21537;48.226;16.400;2022-07-30T02:37:05;19.90;99.90
35425;DHT22;21537;48.226;16.400;2022-07-30T02:39:35;19.90;99.90
35425;DHT22;21537;48.226;16.400;2022-07-30T02:42:02;19.90;99.90
35425;DHT22;21537;48.226;16.400;2022-07-30T02:44:29;19.80;99.90
35425;DHT22;21537;48.226;16.400;2022-07-30T02:46:57;19.70;99.90
35425;DHT22;21537;48.226;16.400;2022-07-30T02:49:50;19.70;99.90
35425;DHT22;21537;48.226;16.400;2022-07-30T02:52:17;19.70;99.90
35425;DHT22;21537;48.226;16.400;2022-07-30T02:54:43;19.70;99.90
35425;DHT22;21537;48.226;16.400;2022-07-30T02:57:11;19.60;99.90
35425;DHT22;21537;48.226;16.400;2022-07-30T02:59:40;19.60;99.90
35425;DHT22;21537;48.226;16.400;2022-07-30T03:02:08;19.60;99.90
35425;DHT22;21537;48.226;16.400;2022-07-30T03:04:37;19.60;99.90
35425;DHT22;21537;48.226;16.400;2022-07-30T03:07:04;19.60;99.90
35425;DHT22;21537;48.226;16.400;2022-07-30T03:09:33;19.50;99.90
35425;DHT22;21537;48.226;16.400;2022-07-30T03:12:01;19.50;99.90
35425;DHT22;21537;48.226;16.400;2022-07-30T03:14:27;19.50;99.90
35425;DHT22;21537;48.226;16.400;2022-07-30T03:17:01;19.40;99.90
35425;DHT22;21537;48.226;16.400;2022-07-30T03:19:30;19.50;99.90
35425;DHT22;21537;48.226;16.400;2022-07-30T03:22:00;19.50;99.90
35425;DHT22;21537;48.226;16.400;2022-07-30T03:24:27;19.50;99.90
35425;DHT22;21537;48.226;16.400;2022-07-30T03:26:55;19.50;99.90
35425;DHT22;21537;48.226;16.400;2022-07-30T03:29:23;19.50;99.90
35425;DHT22;21537;48.226;16.400;2022-07-30T03:31:51;19.50;99.90
35425;DHT22;21537;48.226;16.400;2022-07-30T03:34:19;19.60;99.90
35425;DHT22;21537;48.226;16.400;2022-07-30T03:36:45;19.60;99.90
35425;DHT22;21537;48.226;16.400;2022-07-30T03:39:12;19.60;99.90
35425;DHT22;21537;48.226;16.400;2022-07-30T03:41:39;19.60;99.90
35425;DHT22;21537;48.226;16.400;2022-07-30T03:44:09;19.70;99.90
35425;DHT22;21537;48.226;16.400;2022-07-30T03:46:36;19.80;99.90
35425;DHT22;21537;48.226;16.400;2022-07-30T03:49:04;19.80;99.90
35425;DHT22;21537;48.226;16.400;2022-07-30T03:51:32;19.80;99.90
35425;DHT22;21537;48.226;16.400;2022-07-30T03:54:00;19.80;99.90
35425;DHT22;21537;48.226;16.400;2022-07-30T03:56:29;19.90;99.90
35425;DHT22;21537;48.226;16.400;2022-07-30T03:59:17;19.90;99.90
35425;DHT22;21537;48.226;16.400;2022-07-30T04:01:44;19.80;99.90
35425;DHT22;21537;48.226;16.400;2022-07-30T04:04:16;19.80;99.90
35425;DHT22;21537;48.226;16.400;2022-07-30T04:06:42;19.80;99.90
35425;DHT22;21537;48.226;16.400;2022-07-30T04:09:10;19.70;99.90
35425;DHT22;21537;48.226;16.400;2022-07-30T04:11:36;19.60;99.90
35425;DHT22;21537;48.226;16.400;2022-07-30T04:14:08;19.40;99.90
35425;DHT22;21537;48.226;16.400;2022-07-30T04:16:49;19.40;99.90
35425;DHT22;21537;48.226;16.400;2022-07-30T04:19:42;19.50;99.90
35425;DHT22;21537;48.226;16.400;2022-07-30T04:22:08;19.40;99.90
35425;DHT22;21537;48.226;16.400;2022-07-30T04:24:38;19.50;99.90
35425;DHT22;21537;48.226;16.400;2022-07-30T04:27:05;19.50;99.90
35425;DHT22;21537;48.226;16.400;2022-07-30T04:29:31;19.50;99.90
35425;DHT22;21537;48.226;16.400;2022-07-30T04:31:57;19.50;99.90
35425;DHT22;21537;48.226;16.400;2022-07-30T04:34:32;19.60;99.90
35425;DHT22;21537;48.226;16.400;2022-07-30T04:36:58;19.50;99.90
35425;DHT22;21537;48.226;16.400;2022-07-30T04:39:24;19.60;99.90
35425;DHT22;21537;48.226;16.400;2022-07-30T04:41:50;19.70;99.90
35425;DHT22;21537;48.226;16.400;2022-07-30T04:44:35;19.70;99.90
35425;DHT22;21537;48.226;16.400;2022-07-30T04:47:24;19.70;99.90
35425;DHT22;21537;48.226;16.400;2022-07-30T04:50:25;19.70;99.90
35425;DHT22;21537;48.226;16.400;2022-07-30T04:52:54;19.70;99.90
35425;DHT22;21537;48.226;16.400;2022-07-30T04:55:26;19.80;99.90
35425;DHT22;21537;48.226;16.400;2022-07-30T04:57:52;19.80;99.90
35425;DHT22;21537;48.226;16.400;2022-07-30T05:00:19;19.80;99.90
35425;DHT22;21537;48.226;16.400;2022-07-30T05:02:46;19.70;99.90
35425;DHT22;21537;48.226;16.400;2022-07-30T05:05:14;19.70;99.90
35425;DHT22;21537;48.226;16.400;2022-07-30T05:07:41;19.70;99.90
35425;DHT22;21537;48.226;16.400;2022-07-30T05:10:10;19.70;99.90
35425;DHT22;21537;48.226;16.400;2022-07-30T05:12:36;19.80;99.90
35425;DHT22;21537;48.226;16.400;2022-07-30T05:15:04;19.80;99.90
35425;DHT22;21537;48.226;16.400;2022-07-30T05:17:30;19.80;99.90
35425;DHT22;21537;48.226;16.400;2022-07-30T05:19:56;19.80;99.90
35425;DHT22;21537;48.226;16.400;2022-07-30T05:22:22;19.80;99.90
35425;DHT22;21537;48.226;16.400;2022-07-30T05:24:50;19.80;99.90
35425;DHT22;21537;48.226;16.400;2022-07-30T05:27:16;19.70;99.90
35425;DHT22;21537;48.226;16.400;2022-07-30T05:29:42;19.70;99.90
35425;DHT22;21537;48.226;16.400;2022-07-30T05:32:12;19.70;99.90
35425;DHT22;21537;48.226;16.400;2022-07-30T05:34:38;19.70;99.90
35425;DHT22;21537;48.226;16.400;2022-07-30T05:37:05;19.70;99.90
35425;DHT22;21537;48.226;16.400;2022-07-30T05:39:31;19.70;99.90
35425;DHT22;21537;48.226;16.400;2022-07-30T05:42:16;19.60;99.90
35425;DHT22;21537;48.226;16.400;2022-07-30T05:44:46;19.60;99.90
35425;DHT22;21537;48.226;16.400;2022-07-30T05:47:12;19.50;99.90
35425;DHT22;21537;48.226;16.400;2022-07-30T05:49:39;19.60;99.90
35425;DHT22;21537;48.226;16.400;2022-07-30T05:52:12;19.60;99.90
35425;DHT22;21537;48.226;16.400;2022-07-30T05:54:37;19.60;99.90
35425;DHT22;21537;48.226;16.400;2022-07-30T05:57:22;19.60;99.90
35425;DHT22;21537;48.226;16.400;2022-07-30T05:59:48;19.60;99.90
35425;DHT22;21537;48.226;16.400;2022-07-30T06:02:22;19.60;99.90
35425;DHT22;21537;48.226;16.400;2022-07-30T06:04:56;19.50;99.90
35425;DHT22;21537;48.226;16.400;2022-07-30T06:07:22;19.50;99.90
35425;DHT22;21537;48.226;16.400;2022-07-30T06:09:50;19.40;99.90
35425;DHT22;21537;48.226;16.400;2022-07-30T06:12:16;19.50;99.90
35425;DHT22;21537;48.226;16.400;2022-07-30T06:14:42;19.40;99.90
35425;DHT22;21537;48.226;16.400;2022-07-30T06:17:12;19.30;99.90
35425;DHT22;21537;48.226;16.400;2022-07-30T06:20:01;19.30;99.90
35425;DHT22;21537;48.226;16.400;2022-07-30T06:22:31;19.30;99.90
35425;DHT22;21537;48.226;16.400;2022-07-30T06:25:04;19.30;99.90
35425;DHT22;21537;48.226;16.400;2022-07-30T06:27:30;19.30;99.90
35425;DHT22;21537;48.226;16.400;2022-07-30T06:29:59;19.30;99.90
35425;DHT22;21537;48.226;16.400;2022-07-30T06:32:25;19.20;99.90
35425;DHT22;21537;48.226;16.400;2022-07-30T06:34:52;19.20;99.90
35425;DHT22;21537;48.226;16.400;2022-07-30T06:37:18;19.20;99.90
35425;DHT22;21537;48.226;16.400;2022-07-30T06:39:44;19.20;99.90
35425;DHT22;21537;48.226;16.400;2022-07-30T06:42:18;19.20;99.90
35425;DHT22;21537;48.226;16.400;2022-07-30T06:45:03;19.20;99.90
35425;DHT22;21537;48.226;16.400;2022-07-30T06:47:49;19.20;99.90
35425;DHT22;21537;48.226;16.400;2022-07-30T06:50:15;19.20;99.90
35425;DHT22;21537;48.226;16.400;2022-07-30T06:52:43;19.20;99.90
35425;DHT22;21537;48.226;16.400;2022-07-30T06:55:09;19.20;99.90
35425;DHT22;21537;48.226;16.400;2022-07-30T06:57:42;19.20;99.90
35425;DHT22;21537;48.226;16.400;2022-07-30T07:00:28;19.20;99.90
35425;DHT22;21537;48.226;16.400;2022-07-30T07:02:55;19.20;99.90
35425;DHT22;21537;48.226;16.400;2022-07-30T07:05:33;19.20;99.90
35425;DHT22;21537;48.226;16.400;2022-07-30T07:07:58;19.20;99.90
35425;DHT22;21537;48.226;16.400;2022-07-30T07:10:27;19.20;99.90
35425;DHT22;21537;48.226;16.400;2022-07-30T07:13:13;19.30;99.90
35425;DHT22;21537;48.226;16.400;2022-07-30T07:15:39;19.30;99.90
35425;DHT22;21537;48.226;16.400;2022-07-30T07:18:09;19.30;99.90
35425;DHT22;21537;48.226;16.400;2022-07-30T07:20:38;19.30;99.90
35425;DHT22;21537;48.226;16.400;2022-07-30T07:23:07;19.30;99.90
35425;DHT22;21537;48.226;16.400;2022-07-30T07:25:33;19.30;99.90
35425;DHT22;21537;48.226;16.400;2022-07-30T07:27:58;19.40;99.90
35425;DHT22;21537;48.226;16.400;2022-07-30T07:30:24;19.40;99.90
35425;DHT22;21537;48.226;16.400;2022-07-30T07:32:50;19.50;99.90
35425;DHT22;21537;48.226;16.400;2022-07-30T07:35:16;19.50;99.90
35425;DHT22;21537;48.226;16.400;2022-07-30T07:37:46;19.60;99.90
35425;DHT22;21537;48.226;16.400;2022-07-30T07:40:19;19.60;99.90
35425;DHT22;21537;48.226;16.400;2022-07-30T07:42:45;19.70;99.90
35425;DHT22;21537;48.226;16.400;2022-07-30T07:45:12;19.70;99.90
35425;DHT22;21537;48.226;16.400;2022-07-30T07:47:49;19.70;99.90
35425;DHT22;21537;48.226;16.400;2022-07-30T07:50:35;19.80;99.90
35425;DHT22;21537;48.226;16.400;2022-07-30T07:53:01;19.80;99.90
35425;DHT22;21537;48.226;16.400;2022-07-30T07:55:28;19.90;99.90
35425;DHT22;21537;48.226;16.400;2022-07-30T07:57:54;19.90;99.90
35425;DHT22;21537;48.226;16.400;2022-07-30T08:00:20;19.90;99.90
35425;DHT22;21537;48.226;16.400;2022-07-30T08:02:47;20.00;99.90
35425;DHT22;21537;48.226;16.400;2022-07-30T08:05:14;20.00;99.90
35425;DHT22;21537;48.226;16.400;2022-07-30T08:08:00;20.10;99.90
35425;DHT22;21537;48.226;16.400;2022-07-30T08:10:29;20.10;99.90
35425;DHT22;21537;48.226;16.400;2022-07-30T08:13:14;20.10;99.90
35425;DHT22;21537;48.226;16.400;2022-07-30T08:16:00;20.10;99.90
35425;DHT22;21537;48.226;16.400;2022-07-30T08:19:01;20.10;99.90
35425;DHT22;21537;48.226;16.400;2022-07-30T08:21:33;20.20;99.90
35425;DHT22;21537;48.226;16.400;2022-07-30T08:23:59;20.20;99.90
35425;DHT22;21537;48.226;16.400;2022-07-30T08:26:25;20.30;99.90
35425;DHT22;21537;48.226;16.400;2022-07-30T08:28:51;20.30;99.90
35425;DHT22;21537;48.226;16.400;2022-07-30T08:31:17;20.30;99.90
35425;DHT22;21537;48.226;16.400;2022-07-30T08:33:44;20.40;99.90
35425;DHT22;21537;48.226;16.400;2022-07-30T08:36:10;20.50;99.90
35425;DHT22;21537;48.226;16.400;2022-07-30T08:38:37;20.60;99.90
35425;DHT22;21537;48.226;16.400;2022-07-30T08:41:04;20.60;99.90
35425;DHT22;21537;48.226;16.400;2022-07-30T08:43:32;20.60;99.90
35425;DHT22;21537;48.226;16.400;2022-07-30T08:46:00;20.70;99.90
35425;DHT22;21537;48.226;16.400;2022-07-30T08:48:50;20.70;99.90
35425;DHT22;21537;48.226;16.400;2022-07-30T08:51:18;20.80;99.90
35425;DHT22;21537;48.226;16.400;2022-07-30T08:54:04;20.80;99.90
35425;DHT22;21537;48.226;16.400;2022-07-30T08:56:32;21.00;99.90
35425;DHT22;21537;48.226;16.400;2022-07-30T08:58:59;20.90;99.90
35425;DHT22;21537;48.226;16.400;2022-07-30T09:01:25;20.90;99.90
35425;DHT22;21537;48.226;16.400;2022-07-30T09:03:55;20.90;99.90
35425;DHT22;21537;48.226;16.400;2022-07-30T09:06:21;20.90;99.90
35425;DHT22;21537;48.226;16.400;2022-07-30T09:08:46;20.90;99.90
35425;DHT22;21537;48.226;16.400;2022-07-30T09:11:12;21.00;99.90
35425;DHT22;21537;48.226;16.400;2022-07-30T09:13:40;20.90;99.90
35425;DHT22;21537;48.226;16.400;2022-07-30T09:16:21;20.80;99.90
35425;DHT22;21537;48.226;16.400;2022-07-30T09:18:48;20.80;99.90
35425;DHT22;21537;48.226;16.400;2022-07-30T09:21:26;20.80;99.90
35425;DHT22;21537;48.226;16.400;2022-07-30T09:24:12;20.80;99.90
35425;DHT22;21537;48.226;16.400;2022-07-30T09:26:59;20.80;99.90
35425;DHT22;21537;48.226;16.400;2022-07-30T09:29:43;20.80;99.90
35425;DHT22;21537;48.226;16.400;2022-07-30T09:32:54;20.90;99.90
35425;DHT22;21537;48.226;16.400;2022-07-30T09:35:32;21.00;99.90
35425;DHT22;21537;48.226;16.400;2022-07-30T09:38:10;21.00;99.90
35425;DHT22;21537;48.226;16.400;2022-07-30T09:40:55;21.00;99.90
35425;DHT22;21537;48.226;16.400;2022-07-30T09:43:43;21.00;99.90
35425;DHT22;21537;48.226;16.400;2022-07-30T09:46:17;21.10;99.90
35425;DHT22;21537;48.226;16.400;2022-07-30T09:48:44;21.30;99.90
35425;DHT22;21537;48.226;16.400;2022-07-30T09:51:13;21.30;99.90
35425;DHT22;21537;48.226;16.400;2022-07-30T09:54:11;21.20;99.90
35425;DHT22;21537;48.226;16.400;2022-07-30T09:56:37;21.40;99.90
35425;DHT22;21537;48.226;16.400;2022-07-30T09:59:05;21.60;99.90
35425;DHT22;21537;48.226;16.400;2022-07-30T10:01:52;21.80;99.90
35425;DHT22;21537;48.226;16.400;2022-07-30T10:04:37;22.00;99.90
35425;DHT22;21537;48.226;16.400;2022-07-30T10:07:19;21.80;99.90
35425;DHT22;21537;48.226;16.400;2022-07-30T10:09:47;22.00;99.90
35425;DHT22;21537;48.226;16.400;2022-07-30T10:12:14;22.20;99.90
35425;DHT22;21537;48.226;16.400;2022-07-30T10:14:47;22.30;99.90
35425;DHT22;21537;48.226;16.400;2022-07-30T10:17:17;22.50;99.90
35425;DHT22;21537;48.226;16.400;2022-07-30T10:20:07;22.70;99.90
35425;DHT22;21537;48.226;16.400;2022-07-30T10:22:52;22.90;99.90
35425;DHT22;21537;48.226;16.400;2022-07-30T10:25:33;23.00;99.90
35425;DHT22;21537;48.226;16.400;2022-07-30T10:28:26;23.10;99.90
35425;DHT22;21537;48.226;16.400;2022-07-30T10:30:54;23.30;99.90
35425;DHT22;21537;48.226;16.400;2022-07-30T10:33:22;23.50;99.90
35425;DHT22;21537;48.226;16.400;2022-07-30T10:35:48;23.90;99.90
35425;DHT22;21537;48.226;16.400;2022-07-30T10:38:14;24.10;99.90
35425;DHT22;21537;48.226;16.400;2022-07-30T10:40:55;24.50;99.90
35425;DHT22;21537;48.226;16.400;2022-07-30T10:49:13;26.00;99.90
35425;DHT22;21537;48.226;16.400;2022-07-30T10:51:44;26.00;99.90
35425;DHT22;21537;48.226;16.400;2022-07-30T10:54:37;26.10;99.90
35425;DHT22;21537;48.226;16.400;2022-07-30T10:57:18;26.00;99.90
35425;DHT22;21537;48.226;16.400;2022-07-30T11:02:24;25.50;99.90
35425;DHT22;21537;48.226;16.400;2022-07-30T11:07:46;25.50;99.90
35425;DHT22;21537;48.226;16.400;2022-07-30T11:13:00;25.60;99.90
35425;DHT22;21537;48.226;16.400;2022-07-30T11:15:56;25.80;99.90
35425;DHT22;21537;48.226;16.400;2022-07-30T11:18:25;25.80;99.90
35425;DHT22;21537;48.226;16.400;2022-07-30T11:21:18;26.90;99.90
35425;DHT22;21537;48.226;16.400;2022-07-30T11:23:45;28.50;99.90
35425;DHT22;21537;48.226;16.400;2022-07-30T11:29:04;30.50;98.90
35425;DHT22;21537;48.226;16.400;2022-07-30T11:31:35;31.60;96.80
35425;DHT22;21537;48.226;16.400;2022-07-30T11:42:33;32.60;92.60
35425;DHT22;21537;48.226;16.400;2022-07-30T11:47:45;34.10;90.20
35425;DHT22;21537;48.226;16.400;2022-07-30T11:50:30;32.60;91.10
35425;DHT22;21537;48.226;16.400;2022-07-30T11:53:06;31.10;92.40
35425;DHT22;21537;48.226;16.400;2022-07-30T11:55:36;30.20;93.90
35425;DHT22;21537;48.226;16.400;2022-07-30T11:58:09;29.30;95.20
35425;DHT22;21537;48.226;16.400;2022-07-30T12:00:39;29.10;95.40
35425;DHT22;21537;48.226;16.400;2022-07-30T12:03:13;28.70;95.70
35425;DHT22;21537;48.226;16.400;2022-07-30T12:05:40;28.50;96.60
35425;DHT22;21537;48.226;16.400;2022-07-30T12:08:07;28.60;96.60
35425;DHT22;21537;48.226;16.400;2022-07-30T12:10:33;28.00;97.30
35425;DHT22;21537;48.226;16.400;2022-07-30T12:13:12;27.40;98.10
35425;DHT22;21537;48.226;16.400;2022-07-30T12:15:44;27.10;98.90
35425;DHT22;21537;48.226;16.400;2022-07-30T12:18:11;27.10;98.80
35425;DHT22;21537;48.226;16.400;2022-07-30T12:20:39;27.20;98.80
35425;DHT22;21537;48.226;16.400;2022-07-30T12:23:24;27.10;98.90
35425;DHT22;21537;48.226;16.400;2022-07-30T12:25:50;27.00;99.10
35425;DHT22;21537;48.226;16.400;2022-07-30T12:28:27;27.00;99.50
35425;DHT22;21537;48.226;16.400;2022-07-30T12:30:55;26.60;99.90
35425;DHT22;21537;48.226;16.400;2022-07-30T12:33:22;26.50;99.90
35425;DHT22;21537;48.226;16.400;2022-07-30T12:35:50;26.10;99.90
35425;DHT22;21537;48.226;16.400;2022-07-30T12:38:18;25.80;99.90
35425;DHT22;21537;48.226;16.400;2022-07-30T12:41:03;25.60;99.90
35425;DHT22;21537;48.226;16.400;2022-07-30T12:46:20;25.50;99.90
35425;DHT22;21537;48.226;16.400;2022-07-30T12:48:58;25.50;99.90
35425;DHT22;21537;48.226;16.400;2022-07-30T12:51:36;25.70;99.90
35425;DHT22;21537;48.226;16.400;2022-07-30T12:54:16;25.90;99.90
35425;DHT22;21537;48.226;16.400;2022-07-30T12:57:02;26.30;99.90
35425;DHT22;21537;48.226;16.400;2022-07-30T12:59:29;26.70;99.90
35425;DHT22;21537;48.226;16.400;2022-07-30T13:01:56;27.00;99.90
35425;DHT22;21537;48.226;16.400;2022-07-30T13:04:25;27.20;99.80
35425;DHT22;21537;48.226;16.400;2022-07-30T13:07:11;27.30;99.70
35425;DHT22;21537;48.226;16.400;2022-07-30T13:09:38;27.50;99.40
35425;DHT22;21537;48.226;16.400;2022-07-30T13:12:11;27.50;99.00
35425;DHT22;21537;48.226;16.400;2022-07-30T13:14:38;27.40;99.20
35425;DHT22;21537;48.226;16.400;2022-07-30T13:17:04;27.30;99.30
35425;DHT22;21537;48.226;16.400;2022-07-30T13:19:30;26.90;99.50
35425;DHT22;21537;48.226;16.400;2022-07-30T13:21:56;26.80;99.20
35425;DHT22;21537;48.226;16.400;2022-07-30T13:24:23;26.80;99.10
35425;DHT22;21537;48.226;16.400;2022-07-30T13:26:52;26.60;99.30
35425;DHT22;21537;48.226;16.400;2022-07-30T13:29:21;26.20;99.70
35425;DHT22;21537;48.226;16.400;2022-07-30T13:31:50;26.10;99.90
35425;DHT22;21537;48.226;16.400;2022-07-30T13:34:20;25.90;99.90
35425;DHT22;21537;48.226;16.400;2022-07-30T13:36:48;25.60;99.90
35425;DHT22;21537;48.226;16.400;2022-07-30T13:39:17;25.30;99.90
35425;DHT22;21537;48.226;16.400;2022-07-30T13:41:45;25.10;99.90
35425;DHT22;21537;48.226;16.400;2022-07-30T13:44:17;24.90;99.90
35425;DHT22;21537;48.226;16.400;2022-07-30T13:46:44;24.80;99.90
35425;DHT22;21537;48.226;16.400;2022-07-30T13:49:10;24.80;99.90
35425;DHT22;21537;48.226;16.400;2022-07-30T13:51:41;24.90;99.90
35425;DHT22;21537;48.226;16.400;2022-07-30T13:54:10;25.00;99.90
35425;DHT22;21537;48.226;16.400;2022-07-30T13:56:38;25.20;99.90
35425;DHT22;21537;48.226;16.400;2022-07-30T13:59:10;25.40;99.90
35425;DHT22;21537;48.226;16.400;2022-07-30T14:01:36;25.40;99.90
35425;DHT22;21537;48.226;16.400;2022-07-30T14:04:08;25.40;99.90
35425;DHT22;21537;48.226;16.400;2022-07-30T14:06:36;25.30;99.80
35425;DHT22;21537;48.226;16.400;2022-07-30T14:09:02;25.20;99.90
35425;DHT22;21537;48.226;16.400;2022-07-30T14:11:34;24.70;99.90
35425;DHT22;21537;48.226;16.400;2022-07-30T14:14:00;24.50;99.90
35425;DHT22;21537;48.226;16.400;2022-07-30T14:16:36;24.60;99.90
35425;DHT22;21537;48.226;16.400;2022-07-30T14:19:22;24.80;99.90
35425;DHT22;21537;48.226;16.400;2022-07-30T14:21:48;25.40;99.90
35425;DHT22;21537;48.226;16.400;2022-07-30T14:24:14;26.10;99.90
35425;DHT22;21537;48.226;16.400;2022-07-30T14:27:00;26.50;99.10
35425;DHT22;21537;48.226;16.400;2022-07-30T14:29:32;26.90;98.80
35425;DHT22;21537;48.226;16.400;2022-07-30T14:32:06;27.00;98.90
35425;DHT22;21537;48.226;16.400;2022-07-30T14:34:35;27.20;98.50
35425;DHT22;21537;48.226;16.400;2022-07-30T14:37:07;27.40;97.80
35425;DHT22;21537;48.226;16.400;2022-07-30T14:39:42;28.00;97.40
35425;DHT22;21537;48.226;16.400;2022-07-30T14:42:09;29.10;96.00
35425;DHT22;21537;48.226;16.400;2022-07-30T14:44:35;29.10;94.90
35425;DHT22;21537;48.226;16.400;2022-07-30T14:47:01;29.10;94.80
35425;DHT22;21537;48.226;16.400;2022-07-30T14:49:30;29.40;94.10
35425;DHT22;21537;48.226;16.400;2022-07-30T14:51:56;30.10;92.40
35425;DHT22;21537;48.226;16.400;2022-07-30T14:54:22;31.00;91.30
35425;DHT22;21537;48.226;16.400;2022-07-30T14:56:48;31.30;90.60
35425;DHT22;21537;48.226;16.400;2022-07-30T14:59:14;32.00;89.70
35425;DHT22;21537;48.226;16.400;2022-07-30T15:01:41;32.60;88.40
35425;DHT22;21537;48.226;16.400;2022-07-30T15:04:08;33.40;86.60
35425;DHT22;21537;48.226;16.400;2022-07-30T15:06:36;34.40;84.80
35425;DHT22;21537;48.226;16.400;2022-07-30T15:09:02;35.30;82.50
35425;DHT22;21537;48.226;16.400;2022-07-30T15:11:28;34.10;82.90
35425;DHT22;21537;48.226;16.400;2022-07-30T15:13:54;32.60;85.50
35425;DHT22;21537;48.226;16.400;2022-07-30T15:16:20;31.60;87.40
35425;DHT22;21537;48.226;16.400;2022-07-30T15:18:46;30.40;88.90
35425;DHT22;21537;48.226;16.400;2022-07-30T15:21:11;29.30;90.10
35425;DHT22;21537;48.226;16.400;2022-07-30T15:23:37;28.60;90.70
35425;DHT22;21537;48.226;16.400;2022-07-30T15:26:04;27.90;91.10
35425;DHT22;21537;48.226;16.400;2022-07-30T15:28:29;27.60;91.70
35425;DHT22;21537;48.226;16.400;2022-07-30T15:30:55;27.20;92.10
35425;DHT22;21537;48.226;16.400;2022-07-30T15:33:22;26.80;91.90
35425;DHT22;21537;48.226;16.400;2022-07-30T15:35:48;26.40;92.30
35425;DHT22;21537;48.226;16.400;2022-07-30T15:38:14;26.20;92.60
35425;DHT22;21537;48.226;16.400;2022-07-30T15:40:40;25.90;93.00
35425;DHT22;21537;48.226;16.400;2022-07-30T15:43:07;25.70;93.20
35425;DHT22;21537;48.226;16.400;2022-07-30T15:45:33;25.60;93.70
35425;DHT22;21537;48.226;16.400;2022-07-30T15:47:59;25.50;94.00
35425;DHT22;21537;48.226;16.400;2022-07-30T15:50:25;25.50;94.30
35425;DHT22;21537;48.226;16.400;2022-07-30T15:52:51;25.50;94.40
35425;DHT22;21537;48.226;16.400;2022-07-30T15:55:17;25.50;94.70
35425;DHT22;21537;48.226;16.400;2022-07-30T15:57:42;25.40;94.90
35425;DHT22;21537;48.226;16.400;2022-07-30T16:00:08;25.50;95.10
35425;DHT22;21537;48.226;16.400;2022-07-30T16:02:38;25.40;95.40
35425;DHT22;21537;48.226;16.400;2022-07-30T16:05:04;25.30;95.80
35425;DHT22;21537;48.226;16.400;2022-07-30T16:07:30;25.30;96.20
35425;DHT22;21537;48.226;16.400;2022-07-30T16:09:56;25.40;96.30